createdAt,value
2019-02-20T00:05:23.078Z,6.40
2019-02-20T00:07:52.579Z,10.72
2019-02-20T00:10:22.115Z,4.60
2019-02-20T00:12:51.623Z,4.78
2019-02-20T00:15:21.163Z,8.00
2019-02-20T00:17:50.635Z,7.80
2019-02-20T00:20:20.105Z,15.73
2019-02-20T00:22:49.851Z,6.12
2019-02-20T00:28:21.745Z,6.55
2019-02-20T00:30:51.221Z,6.40
2019-02-20T00:33:40.019Z,5.92
2019-02-20T00:36:28.546Z,10.80
2019-02-20T00:38:58.111Z,9.73
2019-02-20T00:41:46.751Z,7.75
2019-02-20T00:44:23.655Z,4.03
2019-02-20T00:47:12.170Z,7.93
2019-02-20T00:49:45.378Z,7.95
2019-02-20T00:52:35.538Z,8.30
2019-02-20T00:58:19.928Z,6.35
2019-02-20T01:00:49.886Z,4.12
2019-02-20T01:03:20.299Z,10.03
2019-02-20T01:05:50.056Z,5.42
2019-02-20T01:08:19.991Z,7.67
2019-02-20T01:10:50.241Z,8.48
2019-02-20T01:13:20.014Z,7.37
2019-02-20T01:15:50.071Z,11.70
2019-02-20T01:18:20.138Z,10.50
2019-02-20T01:20:50.114Z,8.00
2019-02-20T01:23:20.219Z,6.40
2019-02-20T01:25:50.147Z,11.00
2019-02-20T01:28:20.090Z,8.03
2019-02-20T01:30:50.103Z,7.62
2019-02-20T01:33:20.136Z,8.30
2019-02-20T01:36:03.524Z,9.20
2019-02-20T01:38:33.057Z,17.82
2019-02-20T01:41:14.514Z,12.57
2019-02-20T01:46:26.168Z,7.40
2019-02-20T01:48:55.646Z,8.67
2019-02-20T01:51:25.107Z,7.40
2019-02-20T01:53:54.578Z,9.73
2019-02-20T01:56:24.044Z,13.80
2019-02-20T01:58:53.533Z,14.63
2019-02-20T02:01:23.001Z,12.13
2019-02-20T02:03:52.538Z,5.70
2019-02-20T02:06:22.286Z,16.80
2019-02-20T02:08:51.749Z,11.33
2019-02-20T02:11:21.298Z,20.90
2019-02-20T02:13:50.889Z,8.60
2019-02-20T02:16:41.000Z,14.80
2019-02-20T02:19:10.831Z,13.90
2019-02-20T02:21:40.307Z,8.43
2019-02-20T02:24:09.807Z,14.80
2019-02-20T02:26:39.275Z,11.40
2019-02-20T02:29:08.790Z,8.90
2019-02-20T02:31:38.264Z,7.90
2019-02-20T02:34:07.834Z,12.33
2019-02-20T02:36:37.321Z,7.30
2019-02-20T02:39:06.859Z,11.20
2019-02-20T02:41:37.948Z,8.90
2019-02-20T02:44:07.474Z,7.27
2019-02-20T02:46:37.162Z,13.27
2019-02-20T02:49:06.736Z,15.20
2019-02-20T02:51:48.165Z,11.03
2019-02-20T02:54:17.739Z,6.13
2019-02-20T02:56:47.217Z,6.37
2019-02-20T02:59:37.631Z,11.23
2019-02-20T03:02:26.366Z,12.47
2019-02-20T03:04:55.855Z,5.28
2019-02-20T03:07:25.313Z,8.40
2019-02-20T03:09:54.997Z,12.57
2019-02-20T03:12:24.491Z,8.87
2019-02-20T03:14:53.992Z,11.47
2019-02-20T03:17:23.533Z,6.80
2019-02-20T03:19:53.030Z,10.70
2019-02-20T03:22:22.564Z,8.37
2019-02-20T03:24:52.046Z,19.13
2019-02-20T03:30:29.380Z,8.08
2019-02-20T03:32:58.870Z,7.90
2019-02-20T03:35:28.560Z,10.28
2019-02-20T03:37:58.066Z,12.98
2019-02-20T03:40:27.547Z,9.40
2019-02-20T03:42:57.057Z,6.58
2019-02-20T03:45:45.622Z,8.67
2019-02-20T03:48:15.149Z,8.40
2019-02-20T03:50:44.717Z,7.97
2019-02-20T03:53:14.208Z,9.95
2019-02-20T03:55:43.700Z,8.80
2019-02-20T03:58:13.372Z,5.40
2019-02-20T04:00:42.851Z,10.23
2019-02-20T04:03:12.323Z,10.37
2019-02-20T04:06:02.072Z,7.70
2019-02-20T04:08:31.514Z,6.03
2019-02-20T04:14:01.862Z,10.00
2019-02-20T04:16:31.438Z,10.30
2019-02-20T04:21:42.630Z,10.50
2019-02-20T04:24:12.136Z,7.30
2019-02-20T04:26:41.618Z,8.30
2019-02-20T04:29:11.113Z,8.63
2019-02-20T04:31:40.589Z,9.10
2019-02-20T04:34:10.071Z,9.73
2019-02-20T04:36:39.557Z,7.17
2019-02-20T04:39:09.060Z,6.57
2019-02-20T04:41:38.565Z,8.70
2019-02-20T04:44:08.052Z,10.07
2019-02-20T04:46:37.564Z,7.50
2019-02-20T04:49:07.101Z,11.20
2019-02-20T04:51:36.609Z,10.83
2019-02-20T04:57:20.059Z,16.43
2019-02-20T05:02:52.068Z,7.75
2019-02-20T05:05:22.166Z,8.30
2019-02-20T05:07:52.164Z,4.92
2019-02-20T05:10:22.191Z,9.13
2019-02-20T05:12:51.659Z,9.10
2019-02-20T05:15:21.196Z,7.45
2019-02-20T05:17:50.657Z,11.97
2019-02-20T05:20:21.775Z,7.03
2019-02-20T05:22:51.239Z,9.00
2019-02-20T05:25:20.772Z,10.53
2019-02-20T05:27:50.261Z,7.87
2019-02-20T05:30:19.772Z,9.03
2019-02-20T05:32:49.330Z,11.30
2019-02-20T05:35:18.883Z,9.20
2019-02-20T05:37:48.338Z,8.65
2019-02-20T05:40:17.811Z,15.23
2019-02-20T05:42:48.378Z,15.60
2019-02-20T05:45:24.202Z,20.05
2019-02-20T05:47:53.706Z,18.40
2019-02-20T05:50:23.216Z,11.93
2019-02-20T05:52:52.734Z,8.58
2019-02-20T05:55:22.266Z,14.38
2019-02-20T05:57:53.362Z,13.00
2019-02-20T06:00:22.845Z,12.90
2019-02-20T06:02:52.324Z,12.60
2019-02-20T06:05:22.006Z,11.45
2019-02-20T06:07:51.480Z,11.97
2019-02-20T06:10:20.974Z,19.77
2019-02-20T06:12:50.442Z,9.27
2019-02-20T06:15:19.928Z,12.90
2019-02-20T06:17:49.396Z,15.90
2019-02-20T06:20:37.928Z,7.67
2019-02-20T06:23:07.827Z,18.50
2019-02-20T06:25:37.895Z,15.98
2019-02-20T06:28:09.129Z,15.33
2019-02-20T06:30:38.647Z,11.40
2019-02-20T06:33:08.115Z,21.27
2019-02-20T06:35:37.725Z,16.02
2019-02-20T06:38:10.538Z,10.68
2019-02-20T06:40:57.642Z,13.23
2019-02-20T06:43:27.086Z,9.20
2019-02-20T06:45:56.580Z,14.55
2019-02-20T06:48:26.057Z,13.80
2019-02-20T06:50:55.558Z,18.43
2019-02-20T06:53:25.055Z,19.33
2019-02-20T06:55:54.559Z,16.33
2019-02-20T06:58:30.027Z,21.07
2019-02-20T07:00:59.495Z,20.43
2019-02-20T07:03:29.011Z,25.77
2019-02-20T07:06:37.008Z,17.73
2019-02-20T07:09:17.510Z,17.95
2019-02-20T07:12:25.555Z,19.37
2019-02-20T07:15:21.829Z,25.20
2019-02-20T07:18:29.876Z,24.23
2019-02-20T07:21:22.723Z,14.97
2019-02-20T07:24:14.856Z,14.33
2019-02-20T07:27:22.900Z,14.40
2019-02-20T07:30:11.647Z,13.93
2019-02-20T07:32:41.190Z,25.77
2019-02-20T07:35:11.301Z,12.07
2019-02-20T07:37:40.794Z,11.03
2019-02-20T07:40:11.848Z,16.33
2019-02-20T07:42:41.349Z,18.00
2019-02-20T07:48:13.793Z,22.10
2019-02-20T07:50:44.963Z,17.07
2019-02-20T07:53:14.454Z,25.00
2019-02-20T07:55:43.977Z,13.53
2019-02-20T07:58:13.560Z,17.73
2019-02-20T08:00:43.063Z,12.60
2019-02-20T08:03:12.533Z,17.90
2019-02-20T08:05:49.253Z,19.60
2019-02-20T08:08:19.268Z,15.80
2019-02-20T08:10:49.138Z,18.35
2019-02-20T08:13:19.119Z,20.05
2019-02-20T08:15:49.149Z,10.45
2019-02-20T08:18:19.125Z,15.20
2019-02-20T08:23:30.842Z,17.70
2019-02-20T08:26:00.347Z,17.20
2019-02-20T08:28:29.812Z,12.20
2019-02-20T08:30:59.305Z,13.27
2019-02-20T08:33:28.803Z,17.90
2019-02-20T08:35:58.327Z,15.70
2019-02-20T08:38:27.834Z,15.87
2019-02-20T08:40:57.337Z,15.63
2019-02-20T08:43:26.804Z,15.57
2019-02-20T08:45:57.928Z,15.77
2019-02-20T08:51:15.917Z,15.67
2019-02-20T08:53:45.468Z,16.33
2019-02-20T08:56:15.055Z,22.10
2019-02-20T08:58:44.535Z,13.07
2019-02-20T09:01:14.029Z,15.48
2019-02-20T09:03:43.561Z,18.37
2019-02-20T09:06:13.102Z,18.77
2019-02-20T09:08:42.564Z,17.77
2019-02-20T09:11:12.051Z,20.45
2019-02-20T09:13:41.545Z,13.60
2019-02-20T09:16:11.039Z,20.87
2019-02-20T09:18:40.505Z,16.93
2019-02-20T09:21:10.002Z,14.77
2019-02-20T09:23:39.490Z,16.17
2019-02-20T09:26:21.128Z,22.60
2019-02-20T09:29:09.926Z,15.50
2019-02-20T09:31:39.490Z,15.27
2019-02-20T09:34:09.514Z,17.55
2019-02-20T09:36:39.360Z,17.10
2019-02-20T09:39:29.879Z,21.20
2019-02-20T09:41:59.415Z,17.47
2019-02-20T09:44:30.716Z,19.70
2019-02-20T09:47:00.245Z,20.50
2019-02-20T09:49:35.170Z,15.35
2019-02-20T09:52:04.899Z,21.37
2019-02-20T09:57:55.714Z,17.17
2019-02-20T10:00:25.279Z,15.50
2019-02-20T10:05:57.362Z,15.93
2019-02-20T10:08:28.476Z,14.43
2019-02-20T10:10:57.961Z,19.73
2019-02-20T10:13:27.458Z,19.80
2019-02-20T10:15:57.131Z,17.73
2019-02-20T10:21:26.568Z,16.13
2019-02-20T10:23:56.079Z,23.10
2019-02-20T10:26:25.668Z,17.07
2019-02-20T10:28:55.134Z,14.77
2019-02-20T10:31:24.715Z,20.60
2019-02-20T10:34:15.071Z,11.63
2019-02-20T10:36:44.559Z,17.27
2019-02-20T10:39:14.045Z,17.95
2019-02-20T10:41:43.527Z,24.57
2019-02-20T10:44:13.010Z,19.90
2019-02-20T10:46:42.491Z,17.93
2019-02-20T10:49:11.955Z,22.00
2019-02-20T10:51:41.664Z,21.17
2019-02-20T10:54:11.211Z,13.37
2019-02-20T10:56:40.995Z,16.27
2019-02-20T10:59:10.962Z,11.78
2019-02-20T11:01:40.979Z,18.52
2019-02-20T11:04:11.061Z,27.17
2019-02-20T11:06:41.107Z,18.90
2019-02-20T11:09:11.107Z,24.67
2019-02-20T11:14:23.895Z,19.13
2019-02-20T11:16:53.490Z,13.03
2019-02-20T11:19:23.036Z,19.82
2019-02-20T11:21:54.149Z,15.80
2019-02-20T11:27:23.585Z,17.23
2019-02-20T11:29:53.098Z,18.17
2019-02-20T11:32:22.648Z,18.90
2019-02-20T11:35:11.651Z,16.87
2019-02-20T11:37:41.601Z,12.47
2019-02-20T11:40:11.567Z,10.10
2019-02-20T11:42:41.585Z,17.45
2019-02-20T11:45:11.661Z,14.80
2019-02-20T11:47:42.779Z,11.50
2019-02-20T11:50:12.556Z,20.33
2019-02-20T11:52:42.245Z,8.37
2019-02-20T11:55:11.938Z,9.90
2019-02-20T11:58:01.189Z,16.23
2019-02-20T12:00:30.734Z,13.00
2019-02-20T12:05:43.327Z,10.37
2019-02-20T12:08:18.940Z,15.77
2019-02-20T12:11:07.571Z,12.23
2019-02-20T12:13:56.428Z,8.57
2019-02-20T12:16:27.262Z,13.23
2019-02-20T12:19:16.266Z,7.13
2019-02-20T12:21:45.763Z,9.63
2019-02-20T12:24:15.329Z,14.87
2019-02-20T12:26:45.094Z,11.47
2019-02-20T12:29:14.590Z,18.30
2019-02-20T12:31:52.098Z,9.27
2019-02-20T12:37:09.303Z,8.70
2019-02-20T12:39:58.029Z,5.27
2019-02-20T12:42:27.613Z,6.93
2019-02-20T12:44:58.566Z,9.63
2019-02-20T12:47:33.803Z,7.93
2019-02-20T12:50:03.275Z,9.83
2019-02-20T12:52:32.899Z,8.40
2019-02-20T12:55:02.376Z,8.00
2019-02-20T12:57:31.929Z,7.20
2019-02-20T13:00:01.399Z,9.20
2019-02-20T13:02:32.512Z,10.07
2019-02-20T13:05:21.266Z,7.90
2019-02-20T13:07:50.750Z,6.90
2019-02-20T13:13:02.243Z,15.90
2019-02-20T13:15:31.730Z,7.10
2019-02-20T13:18:01.200Z,7.73
2019-02-20T13:20:30.756Z,7.12
2019-02-20T13:23:00.237Z,8.87
2019-02-20T13:25:29.848Z,5.87
2019-02-20T13:27:59.309Z,5.17
2019-02-20T13:30:41.291Z,8.90
2019-02-20T13:33:10.766Z,3.90
2019-02-20T13:35:40.291Z,5.33
2019-02-20T13:38:09.780Z,4.07
2019-02-20T13:40:39.258Z,5.90
2019-02-20T13:43:08.842Z,7.63
2019-02-20T13:45:38.341Z,9.33
2019-02-20T13:48:08.003Z,8.63
2019-02-20T13:50:37.509Z,5.90
2019-02-20T13:53:06.991Z,8.50
2019-02-20T13:55:36.548Z,5.23
2019-02-20T13:58:06.087Z,7.35
2019-02-20T14:00:35.715Z,7.73
2019-02-20T14:03:26.029Z,10.20
2019-02-20T14:05:55.519Z,6.33
2019-02-20T14:08:25.012Z,5.05
2019-02-20T14:10:54.756Z,5.13
2019-02-20T14:13:24.198Z,8.10
2019-02-20T14:15:55.376Z,6.83
2019-02-20T14:18:24.864Z,11.60
2019-02-20T14:20:54.456Z,8.87
2019-02-20T14:23:23.952Z,14.13
2019-02-20T14:25:53.476Z,9.63
2019-02-20T14:28:42.247Z,8.43
2019-02-20T14:31:12.423Z,10.75
2019-02-20T14:33:42.447Z,3.62
2019-02-20T14:36:12.614Z,9.28
2019-02-20T14:38:42.390Z,9.98
2019-02-20T14:41:12.430Z,4.57
2019-02-20T14:43:42.396Z,10.05
2019-02-20T14:46:12.479Z,5.70
2019-02-20T14:48:42.447Z,4.95
2019-02-20T14:51:12.571Z,5.55
2019-02-20T14:53:42.518Z,9.73
2019-02-20T14:56:12.459Z,5.22
2019-02-20T14:58:42.498Z,3.37
2019-02-20T15:01:31.114Z,4.70
2019-02-20T15:04:00.640Z,6.77
2019-02-20T15:06:49.583Z,3.30
2019-02-20T15:09:19.071Z,4.30
2019-02-20T15:14:29.995Z,6.77
2019-02-20T15:16:59.581Z,6.83
2019-02-20T15:19:29.055Z,10.53
2019-02-20T15:21:58.648Z,13.03
2019-02-20T15:24:28.199Z,6.57
2019-02-20T15:27:03.943Z,6.13
2019-02-20T15:29:40.470Z,6.78
2019-02-20T15:32:10.056Z,5.20
2019-02-20T15:34:39.955Z,5.37
2019-02-20T15:37:09.484Z,7.33
2019-02-20T15:39:39.137Z,9.37
2019-02-20T15:42:35.200Z,9.33
2019-02-20T15:45:24.310Z,12.33
2019-02-20T15:48:22.893Z,9.67
2019-02-20T15:50:53.053Z,9.53
2019-02-20T15:53:28.018Z,10.95
2019-02-20T15:55:57.491Z,6.12
2019-02-20T16:01:48.201Z,7.50
2019-02-20T16:04:17.676Z,4.87
2019-02-20T16:06:47.144Z,9.17
2019-02-20T16:09:16.625Z,7.97
2019-02-20T16:11:46.149Z,6.27
2019-02-20T16:14:34.675Z,14.97
2019-02-20T16:17:04.180Z,8.33
2019-02-20T16:19:33.728Z,10.53
2019-02-20T16:22:03.265Z,8.47
2019-02-20T16:24:32.823Z,5.97
2019-02-20T16:27:02.420Z,12.00
2019-02-20T16:29:32.081Z,7.60
2019-02-20T16:32:01.556Z,6.10
2019-02-20T16:34:31.161Z,5.17
2019-02-20T16:37:00.652Z,7.70
2019-02-20T16:39:30.249Z,8.20
2019-02-20T16:41:59.719Z,8.90
2019-02-20T16:44:34.807Z,7.40
2019-02-20T16:47:04.298Z,9.20
2019-02-20T16:49:34.008Z,7.92
2019-02-20T16:52:03.471Z,7.40
2019-02-20T16:54:52.163Z,12.10
2019-02-20T16:57:21.654Z,10.27
2019-02-20T16:59:51.581Z,4.97
2019-02-20T17:02:21.019Z,5.63
2019-02-20T17:04:50.650Z,10.82
2019-02-20T17:07:20.304Z,9.67
2019-02-20T17:09:50.004Z,11.07
2019-02-20T17:12:19.499Z,11.57
2019-02-20T17:14:49.022Z,11.70
2019-02-20T17:17:18.580Z,9.43
2019-02-20T17:19:48.168Z,18.00
2019-02-20T17:22:17.749Z,11.47
2019-02-20T17:24:47.433Z,15.58
2019-02-20T17:27:16.917Z,8.03
2019-02-20T17:29:46.419Z,14.70
2019-02-20T17:32:15.933Z,5.97
2019-02-20T17:34:45.531Z,7.03
2019-02-20T17:37:14.995Z,21.17
2019-02-20T17:39:44.699Z,9.50
2019-02-20T17:42:14.166Z,7.50
2019-02-20T17:44:43.751Z,8.98
2019-02-20T17:47:53.093Z,6.80
2019-02-20T17:53:03.499Z,7.80
2019-02-20T17:55:33.003Z,12.47
2019-02-20T17:58:02.723Z,7.70
2019-02-20T18:00:32.450Z,17.03
2019-02-20T18:03:07.846Z,10.93
2019-02-20T18:05:37.430Z,15.03
2019-02-20T18:08:06.909Z,12.23
2019-02-20T18:10:36.468Z,12.93
2019-02-20T18:13:05.978Z,15.20
2019-02-20T18:15:35.569Z,11.90
2019-02-20T18:18:05.093Z,15.03
2019-02-20T18:20:34.599Z,22.93
2019-02-20T18:23:04.097Z,12.25
2019-02-20T18:25:33.592Z,14.73
2019-02-20T18:28:03.076Z,16.03
2019-02-20T18:30:34.268Z,20.67
2019-02-20T18:33:03.953Z,16.02
2019-02-20T18:35:33.514Z,18.10
2019-02-20T18:38:03.012Z,19.87
2019-02-20T18:40:51.854Z,16.93
2019-02-20T18:43:21.337Z,18.23
2019-02-20T18:45:50.843Z,18.87
2019-02-20T18:48:20.350Z,18.33
2019-02-20T18:50:49.839Z,16.82
2019-02-20T18:53:19.320Z,17.07
2019-02-20T18:55:48.819Z,19.02
2019-02-20T18:58:19.037Z,25.87
2019-02-20T19:00:54.808Z,16.70
2019-02-20T19:03:24.589Z,22.53
2019-02-20T19:06:13.193Z,18.90
2019-02-20T19:09:03.499Z,17.97
2019-02-20T19:11:55.986Z,18.07
2019-02-20T19:15:04.044Z,20.80
2019-02-20T19:18:10.567Z,18.50
2019-02-20T19:21:18.703Z,20.47
2019-02-20T19:24:26.827Z,15.53
2019-02-20T19:27:34.980Z,27.43
2019-02-20T19:30:30.326Z,25.23
2019-02-20T19:33:08.470Z,15.20
2019-02-20T19:36:04.592Z,20.57
2019-02-20T19:39:12.980Z,24.23
2019-02-20T19:42:28.236Z,20.73
2019-02-20T19:45:22.106Z,20.88
2019-02-20T19:48:30.198Z,23.73
2019-02-20T19:51:38.287Z,24.33
2019-02-20T19:54:32.965Z,24.37
2019-02-20T19:57:19.192Z,25.57
2019-02-20T19:59:56.347Z,26.87
2019-02-20T20:03:04.359Z,26.33
2019-02-20T20:06:06.297Z,21.37
2019-02-20T20:09:14.355Z,20.43
2019-02-20T20:12:22.402Z,31.57
2019-02-20T20:15:30.456Z,21.57
2019-02-20T20:18:38.499Z,27.23
2019-02-20T20:21:46.587Z,27.02
2019-02-20T20:24:54.671Z,28.13
2019-02-20T20:28:02.698Z,22.77
2019-02-20T20:30:58.387Z,24.90
2019-02-20T20:34:06.534Z,19.67
2019-02-20T20:37:09.153Z,28.90
2019-02-20T20:39:45.781Z,20.32
2019-02-20T20:42:53.924Z,25.33
2019-02-20T20:46:02.440Z,28.83
2019-02-20T20:51:54.934Z,24.73
2019-02-20T20:54:47.885Z,23.17
2019-02-20T20:57:39.947Z,32.40
2019-02-20T21:00:24.462Z,26.33
2019-02-20T21:03:01.933Z,23.73
2019-02-20T21:06:09.979Z,22.93
2019-02-20T21:08:46.363Z,28.30
2019-02-20T21:12:10.265Z,25.90
2019-02-20T21:15:17.880Z,30.37
2019-02-20T21:18:11.820Z,35.90
2019-02-20T21:21:19.866Z,33.03
2019-02-20T21:24:14.927Z,35.50
2019-02-20T21:27:22.986Z,26.93
2019-02-20T21:30:32.453Z,34.37
2019-02-20T21:33:40.520Z,30.13
2019-02-20T21:36:48.597Z,29.63
2019-02-20T21:39:56.629Z,34.23
2019-02-20T21:43:04.724Z,35.20
2019-02-20T21:45:56.307Z,37.43
2019-02-20T21:48:33.990Z,34.77
2019-02-20T21:51:15.068Z,30.32
2019-02-20T21:54:09.506Z,36.90
2019-02-20T21:57:02.332Z,28.93
2019-02-20T22:00:10.451Z,35.23
2019-02-20T22:03:02.636Z,29.30
2019-02-20T22:05:55.459Z,31.80
2019-02-20T22:09:04.598Z,31.23
2019-02-20T22:12:14.307Z,33.23
2019-02-20T22:15:16.108Z,35.17
2019-02-20T22:18:24.159Z,34.13
2019-02-20T22:21:32.242Z,31.07
2019-02-20T22:24:40.398Z,29.30
2019-02-20T22:27:48.714Z,30.87
2019-02-20T22:30:56.752Z,30.60
2019-02-20T22:33:50.717Z,26.90
2019-02-20T22:36:48.048Z,37.17
2019-02-20T22:39:56.099Z,38.23
2019-02-20T22:43:04.151Z,33.10
2019-02-20T22:46:12.189Z,35.00
2019-02-20T22:49:20.263Z,32.33
2019-02-20T22:52:28.690Z,31.25
2019-02-20T22:55:36.753Z,30.17
2019-02-20T22:58:13.879Z,29.37
2019-02-20T23:01:21.908Z,43.53
2019-02-20T23:04:14.776Z,25.93
2019-02-20T23:10:19.783Z,34.90
2019-02-20T23:13:28.647Z,28.98
2019-02-20T23:15:58.333Z,31.33
2019-02-20T23:18:27.836Z,28.83
2019-02-20T23:20:57.331Z,30.10
2019-02-20T23:23:26.826Z,32.07
2019-02-20T23:25:57.960Z,36.30
2019-02-20T23:28:46.763Z,30.33
2019-02-20T23:31:16.338Z,28.10
2019-02-20T23:33:45.941Z,24.60
2019-02-20T23:36:34.530Z,28.23
2019-02-20T23:39:16.544Z,35.30
2019-02-20T23:41:46.031Z,25.00
2019-02-20T23:44:15.526Z,33.37
2019-02-20T23:46:45.021Z,31.02
2019-02-20T23:49:14.742Z,28.70
2019-02-20T23:51:44.221Z,32.23
2019-02-20T23:54:13.851Z,24.93
2019-02-20T23:56:43.450Z,24.23
2019-02-20T23:59:13.916Z,26.77
